Buoy 52609

sailwx.info

Track history (hours):
 
Tides and Currents Weather Stations Pressure Air Temp Water Temp Dewpoint Dewpoint Depression Visibility Wind Speed Wind Dir Waves Ship Positions

Drifting buoy 52609

Last reported at 2014-Aug-22 19:00 UTC. Time now 2014-Aug-23 01:36 UTC.
Position N 11°05' E 157°01'.

Water temperature 30.0 ° C

Date/timePositionNaut miles runAvg speedWind from/ knotsBaromVisibWave heightAir tempDewpointWater temp
2014-Aug-22 19:00N 11°05' E 157°01'2 0.9 30.0
2014-Aug-22 17:00N 11°06' E 157°02'1 0.9 30.0
2014-Aug-22 16:00N 11°06' E 157°03'0 0.0 30.1
2014-Aug-22 15:00N 11°06' E 157°03'1 0.2 30.1
2014-Aug-22 12:00N 11°06' E 157°04'0 0.2 30.1
2014-Aug-22 09:00N 11°06' E 157°04'0 0.0 30.5
2014-Aug-22 08:00N 11°06' E 157°04'1 0.6 30.5
2014-Aug-22 07:00N 11°06' E 157°04'0 0.2 30.6
2014-Aug-22 06:00N 11°06' E 157°04'1 0.2 30.7
2014-Aug-22 03:00N 11°05' E 157°05'0 0.1 30.7
2014-Aug-22 02:00N 11°05' E 157°05'5 0.8 30.8
2014-Aug-21 20:00N 11°01' E 157°07'0 0.0 30.0
2014-Aug-21 19:00N 11°01' E 157°07'0 0.0 30.0
2014-Aug-21 18:00N 11°01' E 157°07'0 0.0 29.9
2014-Aug-21 17:00N 11°01' E 157°07'6 0.8 29.9
2014-Aug-21 10:00N 10°57' E 157°11'3 1.1 30.1
2014-Aug-21 07:00N 10°56' E 157°14'0 0.0 30.3
2014-Aug-21 06:00N 10°56' E 157°14'0 0.0 30.4
2014-Aug-21 05:00N 10°56' E 157°14'1 1.5 30.5
2014-Aug-21 04:00N 10°55' E 157°16'0 0.0 30.5
2014-Aug-21 03:00N 10°55' E 157°16'0 0.0 30.5
2014-Aug-21 02:00N 10°55' E 157°16'4 0.7 30.4
2014-Aug-20 20:00N 10°52' E 157°19'1 0.7 29.9
2014-Aug-20 19:00N 10°52' E 157°19'0 0.1 29.9
2014-Aug-20 17:00N 10°52' E 157°19'5 0.8 29.9
2014-Aug-20 11:00N 10°49' E 157°23'2 2.3 30.1
2014-Aug-20 10:00N 10°48' E 157°25'1 0.2 30.2
2014-Aug-20 06:00N 10°47' E 157°25'2 0.8 30.4
2014-Aug-20 04:00N 10°46' E 157°26'2 0.5 30.5
2014-Aug-20 00:00N 10°46' E 157°28'4 0.6 30.2
2014-Aug-19 18:00N 10°45' E 157°32'0 0.1 29.8
2014-Aug-19 15:00N 10°45' E 157°32'0 0.0 30.0
2014-Aug-19 14:00N 10°45' E 157°32'6 0.6 30.0
2014-Aug-19 05:00N 10°40' E 157°34'1 1.5 31.1
2014-Aug-19 04:00N 10°38' E 157°35'0 0.0 30.8
2014-Aug-19 03:00N 10°38' E 157°35'5 1.4 30.6
2014-Aug-18 23:00N 10°34' E 157°38'0 0.0 30.0
2014-Aug-18 21:00N 10°34' E 157°38'4 0.7 29.8
2014-Aug-18 15:00N 10°31' E 157°42'1 1.3 29.8
2014-Aug-18 14:00N 10°30' E 157°42'1 0.3 29.8
2014-Aug-18 11:00N 10°30' E 157°43'1 1.2 29.9
2014-Aug-18 10:00N 10°30' E 157°44'1 1.1 29.9
2014-Aug-18 09:00N 10°29' E 157°45'2 0.9 30.0
2014-Aug-18 07:00N 10°28' E 157°47'5 1.1 30.1
2014-Aug-18 03:00N 10°26' E 157°51'2 0.3 30.0
2014-Aug-17 20:00N 10°25' E 157°53'1 0.3 29.7
2014-Aug-17 18:00N 10°25' E 157°53'1 1.4 29.7
2014-Aug-17 17:00N 10°23' E 157°53'0 0.4 29.7
2014-Aug-17 16:00N 10°23' E 157°54'1 1.3 29.7
2014-Aug-17 15:00N 10°23' E 157°55'2 2.0 29.7
2014-Aug-17 14:00N 10°22' E 157°56'2 0.3 29.7
2014-Aug-17 07:00N 10°21' E 157°58'1 0.3 29.8
2014-Aug-17 03:00N 10°20' E 157°58'2 0.8 29.9
2014-Aug-17 00:00N 10°17' E 157°59'5 0.6 30.3
2014-Aug-16 16:00N 10°14' E 158°03'2 2.0 30.0
2014-Aug-16 15:00N 10°13' E 158°05'4 0.9 30.0
2014-Aug-16 10:00N 10°11' E 158°09'0 0.0 30.2
2014-Aug-16 09:00N 10°11' E 158°09'1 0.3 30.3
2014-Aug-16 06:00N 10°10' E 158°09'0 0.0 30.6
2014-Aug-16 05:00N 10°10' E 158°09'2 1.0 30.7
2014-Aug-16 03:00N 10°09' E 158°10'6 1.2 30.5
2014-Aug-15 22:00N 10°08' E 158°16'1 0.2 29.8
2014-Aug-15 18:00N 10°07' E 158°15'1 0.6 29.8
2014-Aug-15 16:00N 10°06' E 158°16'2 1.8 29.8
2014-Aug-15 15:00N 10°05' E 158°18'2 0.6 29.8
2014-Aug-15 11:00N 10°05' E 158°20'2 0.3 30.1
2014-Aug-15 06:00N 10°04' E 158°21'2 0.7 31.3
2014-Aug-15 03:00N 10°02' E 158°22'0 0.0 32.7
2014-Aug-15 02:00N 10°02' E 158°22'0 0.1 32.8
2014-Aug-15 00:00N 10°02' E 158°22'2 1.8 30.9
2014-Aug-14 23:00N 10°01' E 158°24'5 1.2 30.1
2014-Aug-14 19:00N 09°58' E 158°27'0 0.0 29.6
2014-Aug-14 18:00N 09°58' E 158°27'1 0.5 29.7
2014-Aug-14 16:00N 09°57' E 158°28'0 0.0 29.8
2014-Aug-14 15:00N 09°57' E 158°28'1 0.3 29.8
2014-Aug-14 11:00N 09°56' E 158°28'1 0.7 30.3
2014-Aug-14 09:00N 09°55' E 158°29'3 1.3 30.6
2014-Aug-14 07:00N 09°54' E 158°31'1 0.7 31.1
2014-Aug-14 06:00N 09°53' E 158°32'2 1.1 31.5
2014-Aug-14 04:00N 09°52' E 158°33'0 0.3 31.8
2014-Aug-14 03:00N 09°51' E 158°33'1 0.3 31.6
2014-Aug-13 23:00N 09°51' E 158°34'5 2.3 30.2
2014-Aug-13 21:00N 09°49' E 158°38'4 0.4 29.6
2014-Aug-13 11:00N 09°46' E 158°41'0 0.0 29.7
2014-Aug-13 10:00N 09°46' E 158°41'0 0.0 29.8
2014-Aug-13 09:00N 09°46' E 158°41'4 1.9 29.9
2014-Aug-13 07:00N 09°46' E 158°44'2 1.8 30.2
2014-Aug-13 06:00N 09°46' E 158°46'0 0.0 30.4
2014-Aug-13 04:00N 09°46' E 158°46'0 0.4 30.5
2014-Aug-13 03:00N 09°46' E 158°47'1 0.2 30.5
2014-Aug-12 22:00N 09°45' E 158°47'   29.6
Track history (hours):
 
Tides and Currents Weather Stations Pressure Air Temp Water Temp Dewpoint Dewpoint Depression Visibility Wind Speed Wind Dir Waves Ship Positions

Drifting buoy 52609

Last reported at 2014-Aug-22 19:00 UTC. Time now 2014-Aug-23 01:36 UTC.
Position N 11°05' E 157°01'.

Water temperature 30.0 ° C

Date/timePositionNaut miles runAvg speedWind from/ knotsBaromVisibWave heightAir tempDewpointWater temp
2014-Aug-22 19:00N 11°05' E 157°01'2 0.9 30.0
2014-Aug-22 17:00N 11°06' E 157°02'1 0.9 30.0
2014-Aug-22 16:00N 11°06' E 157°03'0 0.0 30.1
2014-Aug-22 15:00N 11°06' E 157°03'1 0.2 30.1
2014-Aug-22 12:00N 11°06' E 157°04'0 0.2 30.1
2014-Aug-22 09:00N 11°06' E 157°04'0 0.0 30.5
2014-Aug-22 08:00N 11°06' E 157°04'1 0.6 30.5
2014-Aug-22 07:00N 11°06' E 157°04'0 0.2 30.6
2014-Aug-22 06:00N 11°06' E 157°04'1 0.2 30.7
2014-Aug-22 03:00N 11°05' E 157°05'0 0.1 30.7
2014-Aug-22 02:00N 11°05' E 157°05'5 0.8 30.8
2014-Aug-21 20:00N 11°01' E 157°07'0 0.0 30.0
2014-Aug-21 19:00N 11°01' E 157°07'0 0.0 30.0
2014-Aug-21 18:00N 11°01' E 157°07'0 0.0 29.9
2014-Aug-21 17:00N 11°01' E 157°07'6 0.8 29.9
2014-Aug-21 10:00N 10°57' E 157°11'3 1.1 30.1
2014-Aug-21 07:00N 10°56' E 157°14'0 0.0 30.3
2014-Aug-21 06:00N 10°56' E 157°14'0 0.0 30.4
2014-Aug-21 05:00N 10°56' E 157°14'1 1.5 30.5
2014-Aug-21 04:00N 10°55' E 157°16'0 0.0 30.5
2014-Aug-21 03:00N 10°55' E 157°16'0 0.0 30.5
2014-Aug-21 02:00N 10°55' E 157°16'4 0.7 30.4
2014-Aug-20 20:00N 10°52' E 157°19'1 0.7 29.9
2014-Aug-20 19:00N 10°52' E 157°19'0 0.1 29.9
2014-Aug-20 17:00N 10°52' E 157°19'5 0.8 29.9
2014-Aug-20 11:00N 10°49' E 157°23'2 2.3 30.1
2014-Aug-20 10:00N 10°48' E 157°25'1 0.2 30.2
2014-Aug-20 06:00N 10°47' E 157°25'2 0.8 30.4
2014-Aug-20 04:00N 10°46' E 157°26'2 0.5 30.5
2014-Aug-20 00:00N 10°46' E 157°28'4 0.6 30.2
2014-Aug-19 18:00N 10°45' E 157°32'0 0.1 29.8
2014-Aug-19 15:00N 10°45' E 157°32'0 0.0 30.0
2014-Aug-19 14:00N 10°45' E 157°32'6 0.6 30.0
2014-Aug-19 05:00N 10°40' E 157°34'1 1.5 31.1
2014-Aug-19 04:00N 10°38' E 157°35'0 0.0 30.8
2014-Aug-19 03:00N 10°38' E 157°35'5 1.4 30.6
2014-Aug-18 23:00N 10°34' E 157°38'0 0.0 30.0
2014-Aug-18 21:00N 10°34' E 157°38'4 0.7 29.8
2014-Aug-18 15:00N 10°31' E 157°42'1 1.3 29.8
2014-Aug-18 14:00N 10°30' E 157°42'1 0.3 29.8
2014-Aug-18 11:00N 10°30' E 157°43'1 1.2 29.9
2014-Aug-18 10:00N 10°30' E 157°44'1 1.1 29.9
2014-Aug-18 09:00N 10°29' E 157°45'2 0.9 30.0
2014-Aug-18 07:00N 10°28' E 157°47'5 1.1 30.1
2014-Aug-18 03:00N 10°26' E 157°51'2 0.3 30.0
2014-Aug-17 20:00N 10°25' E 157°53'1 0.3 29.7
2014-Aug-17 18:00N 10°25' E 157°53'1 1.4 29.7
2014-Aug-17 17:00N 10°23' E 157°53'0 0.4 29.7
2014-Aug-17 16:00N 10°23' E 157°54'1 1.3 29.7
2014-Aug-17 15:00N 10°23' E 157°55'2 2.0 29.7
2014-Aug-17 14:00N 10°22' E 157°56'2 0.3 29.7
2014-Aug-17 07:00N 10°21' E 157°58'1 0.3 29.8
2014-Aug-17 03:00N 10°20' E 157°58'2 0.8 29.9
2014-Aug-17 00:00N 10°17' E 157°59'5 0.6 30.3
2014-Aug-16 16:00N 10°14' E 158°03'2 2.0 30.0
2014-Aug-16 15:00N 10°13' E 158°05'4 0.9 30.0
2014-Aug-16 10:00N 10°11' E 158°09'0 0.0 30.2
2014-Aug-16 09:00N 10°11' E 158°09'1 0.3 30.3
2014-Aug-16 06:00N 10°10' E 158°09'0 0.0 30.6
2014-Aug-16 05:00N 10°10' E 158°09'2 1.0 30.7
2014-Aug-16 03:00N 10°09' E 158°10'6 1.2 30.5
2014-Aug-15 22:00N 10°08' E 158°16'1 0.2 29.8
2014-Aug-15 18:00N 10°07' E 158°15'1 0.6 29.8
2014-Aug-15 16:00N 10°06' E 158°16'2 1.8 29.8
2014-Aug-15 15:00N 10°05' E 158°18'2 0.6 29.8
2014-Aug-15 11:00N 10°05' E 158°20'2 0.3 30.1
2014-Aug-15 06:00N 10°04' E 158°21'2 0.7 31.3
2014-Aug-15 03:00N 10°02' E 158°22'0 0.0 32.7
2014-Aug-15 02:00N 10°02' E 158°22'0 0.1 32.8
2014-Aug-15 00:00N 10°02' E 158°22'2 1.8 30.9
2014-Aug-14 23:00N 10°01' E 158°24'5 1.2 30.1
2014-Aug-14 19:00N 09°58' E 158°27'0 0.0 29.6
2014-Aug-14 18:00N 09°58' E 158°27'1 0.5 29.7
2014-Aug-14 16:00N 09°57' E 158°28'0 0.0 29.8
2014-Aug-14 15:00N 09°57' E 158°28'1 0.3 29.8
2014-Aug-14 11:00N 09°56' E 158°28'1 0.7 30.3
2014-Aug-14 09:00N 09°55' E 158°29'3 1.3 30.6
2014-Aug-14 07:00N 09°54' E 158°31'1 0.7 31.1
2014-Aug-14 06:00N 09°53' E 158°32'2 1.1 31.5
2014-Aug-14 04:00N 09°52' E 158°33'0 0.3 31.8
2014-Aug-14 03:00N 09°51' E 158°33'1 0.3 31.6
2014-Aug-13 23:00N 09°51' E 158°34'5 2.3 30.2
2014-Aug-13 21:00N 09°49' E 158°38'4 0.4 29.6
2014-Aug-13 11:00N 09°46' E 158°41'0 0.0 29.7
2014-Aug-13 10:00N 09°46' E 158°41'0 0.0 29.8
2014-Aug-13 09:00N 09°46' E 158°41'4 1.9 29.9
2014-Aug-13 07:00N 09°46' E 158°44'2 1.8 30.2
2014-Aug-13 06:00N 09°46' E 158°46'0 0.0 30.4
2014-Aug-13 04:00N 09°46' E 158°46'0 0.4 30.5
2014-Aug-13 03:00N 09°46' E 158°47'1 0.2 30.5
2014-Aug-12 22:00N 09°45' E 158°47'   29.6

Dump ship's entire track history